createdAt,value
2023-12-07T00:00:01.709Z,18.90
2023-12-07T00:02:31.474Z,19.40
2023-12-07T00:04:58.180Z,21.90
2023-12-07T00:07:24.932Z,18.30
2023-12-07T00:09:51.783Z,20.80
2023-12-07T00:12:18.583Z,21.00
2023-12-07T00:14:45.355Z,18.70
2023-12-07T00:17:12.135Z,19.40
2023-12-07T00:19:38.920Z,21.30
2023-12-07T00:22:06.357Z,21.70
2023-12-07T00:24:33.119Z,17.40
2023-12-07T00:26:59.852Z,19.80
2023-12-07T00:29:26.621Z,17.30
2023-12-07T00:31:53.358Z,16.40
2023-12-07T00:34:20.393Z,15.40
2023-12-07T00:36:47.409Z,17.10
2023-12-07T00:39:14.100Z,18.50
2023-12-07T00:41:40.817Z,19.30
2023-12-07T00:44:07.580Z,20.80
2023-12-07T00:46:34.358Z,21.70
2023-12-07T00:49:01.987Z,19.10
2023-12-07T00:51:28.887Z,22.60
2023-12-07T00:53:55.604Z,20.30
2023-12-07T00:56:22.470Z,22.10
2023-12-07T00:58:49.178Z,22.70
2023-12-07T01:01:15.925Z,25.00
2023-12-07T01:03:42.771Z,24.90
2023-12-07T01:06:11.469Z,24.90
2023-12-07T01:08:39.055Z,24.50
2023-12-07T01:11:06.166Z,22.30
2023-12-07T01:13:33.020Z,23.60
2023-12-07T01:15:59.797Z,22.70
2023-12-07T01:18:26.547Z,25.90
2023-12-07T01:20:53.604Z,25.30
2023-12-07T01:23:20.308Z,23.10
2023-12-07T01:25:47.100Z,20.80
2023-12-07T01:28:13.913Z,23.80
2023-12-07T01:30:40.652Z,20.60
2023-12-07T01:33:07.398Z,18.20
2023-12-07T01:35:34.150Z,19.70
2023-12-07T01:38:00.880Z,20.80
2023-12-07T01:40:27.639Z,23.40
2023-12-07T01:42:54.649Z,26.80
2023-12-07T01:45:21.771Z,25.00
2023-12-07T01:47:50.897Z,20.50
2023-12-07T01:50:18.308Z,20.80
2023-12-07T01:52:46.915Z,20.40
2023-12-07T01:55:14.036Z,23.40
2023-12-07T01:57:41.820Z,19.80
2023-12-07T02:00:10.687Z,19.40
2023-12-07T02:02:37.664Z,20.10
2023-12-07T02:05:05.546Z,17.50
2023-12-07T02:07:32.573Z,20.20
2023-12-07T02:09:59.603Z,22.60
2023-12-07T02:12:30.940Z,22.00
2023-12-07T02:14:58.175Z,18.90
2023-12-07T02:17:34.253Z,20.70
2023-12-07T02:20:07.425Z,20.60
2023-12-07T02:22:38.215Z,23.00
2023-12-07T02:25:06.569Z,18.30
2023-12-07T02:27:40.608Z,18.90
2023-12-07T02:30:11.046Z,21.40
2023-12-07T02:32:39.035Z,22.50
2023-12-07T02:35:07.467Z,24.00
2023-12-07T02:37:38.886Z,21.40
2023-12-07T02:40:11.264Z,22.20
2023-12-07T02:42:44.296Z,20.50
2023-12-07T02:45:13.056Z,20.90
2023-12-07T02:47:40.308Z,21.50
2023-12-07T02:50:08.279Z,23.90
2023-12-07T02:52:35.368Z,22.80
2023-12-07T02:55:02.156Z,23.90
2023-12-07T02:57:29.259Z,22.00
2023-12-07T02:59:56.581Z,22.90
2023-12-07T03:02:23.554Z,22.80
2023-12-07T03:04:50.447Z,19.70
2023-12-07T03:07:17.302Z,23.90
2023-12-07T03:09:44.101Z,21.60
2023-12-07T03:12:10.847Z,22.10
2023-12-07T03:14:37.612Z,17.00
2023-12-07T03:17:04.412Z,17.60
2023-12-07T03:19:31.540Z,19.80
2023-12-07T03:21:59.001Z,21.10
2023-12-07T03:24:25.779Z,20.30
2023-12-07T03:26:52.482Z,15.70
2023-12-07T03:29:19.291Z,18.10
2023-12-07T03:31:46.033Z,17.20
2023-12-07T03:34:14.066Z,18.80
2023-12-07T03:36:40.861Z,17.70
2023-12-07T03:39:07.895Z,14.90
2023-12-07T03:41:34.656Z,18.80
2023-12-07T03:44:01.356Z,17.40
2023-12-07T03:46:28.103Z,14.70
2023-12-07T03:48:54.862Z,13.80
2023-12-07T03:51:21.622Z,16.00
2023-12-07T03:53:49.769Z,14.70
2023-12-07T03:56:30.946Z,15.70
2023-12-07T03:58:58.281Z,13.70
2023-12-07T04:01:25.947Z,13.90
2023-12-07T04:03:53.415Z,13.40
2023-12-07T04:06:20.202Z,14.30
2023-12-07T04:08:47.800Z,14.50
2023-12-07T04:11:15.191Z,13.40
2023-12-07T04:13:42.585Z,12.20
2023-12-07T04:16:10.083Z,10.90
2023-12-07T04:18:37.056Z,11.40
2023-12-07T04:21:04.256Z,13.40
2023-12-07T04:23:30.961Z,13.60
2023-12-07T04:25:57.709Z,12.30
2023-12-07T04:28:24.458Z,12.90
2023-12-07T04:30:51.184Z,16.20
2023-12-07T04:33:18.528Z,14.50
2023-12-07T04:35:45.310Z,13.80
2023-12-07T04:38:12.060Z,15.20
2023-12-07T04:40:39.269Z,15.60
2023-12-07T04:43:06.024Z,13.80
2023-12-07T04:45:32.738Z,26.50
2023-12-07T04:48:01.735Z,36.20
2023-12-07T04:50:28.618Z,42.30
2023-12-07T04:52:56.189Z,56.20
2023-12-07T04:55:23.332Z,50.40
2023-12-07T04:57:50.050Z,43.80
2023-12-07T05:00:17.218Z,34.10
2023-12-07T05:02:44.010Z,30.20
2023-12-07T05:05:10.806Z,30.10
2023-12-07T05:07:37.598Z,26.20
2023-12-07T05:10:04.651Z,26.60
2023-12-07T05:12:31.708Z,26.50
2023-12-07T05:14:58.437Z,24.10
2023-12-07T05:17:25.597Z,26.30
2023-12-07T05:19:52.449Z,29.50
2023-12-07T05:22:19.461Z,27.10
2023-12-07T05:24:46.236Z,27.80
2023-12-07T05:27:12.933Z,27.00
2023-12-07T05:29:39.995Z,29.80
2023-12-07T05:32:07.490Z,30.10
2023-12-07T05:34:36.792Z,31.10
2023-12-07T05:37:05.519Z,29.10
2023-12-07T05:39:32.471Z,27.70
2023-12-07T05:41:59.199Z,26.70
2023-12-07T05:44:25.963Z,23.70
2023-12-07T05:46:53.018Z,25.10
2023-12-07T05:49:19.886Z,23.70
2023-12-07T05:51:47.031Z,23.80
2023-12-07T05:54:13.805Z,22.50
2023-12-07T05:56:41.803Z,21.80
2023-12-07T05:59:08.503Z,22.90
2023-12-07T06:01:35.377Z,22.50
2023-12-07T06:04:02.334Z,22.40
2023-12-07T06:06:29.745Z,16.70
2023-12-07T06:08:56.535Z,17.60
2023-12-07T06:11:23.280Z,19.10
2023-12-07T06:13:50.007Z,16.40
2023-12-07T06:16:18.944Z,14.90
2023-12-07T06:18:46.439Z,17.40
2023-12-07T06:21:14.995Z,19.20
2023-12-07T06:23:42.992Z,16.80
2023-12-07T06:26:09.791Z,15.90
2023-12-07T06:28:36.960Z,16.40
2023-12-07T06:31:08.510Z,16.40
2023-12-07T06:33:36.197Z,18.40
2023-12-07T06:36:04.671Z,17.20
2023-12-07T06:38:31.857Z,15.30
2023-12-07T06:40:59.265Z,14.00
2023-12-07T06:43:26.082Z,17.30
2023-12-07T06:45:53.356Z,14.10
2023-12-07T06:48:20.262Z,14.80
2023-12-07T06:50:47.370Z,18.20
2023-12-07T06:53:15.732Z,16.30
2023-12-07T06:55:45.753Z,17.80
2023-12-07T06:58:12.960Z,16.70
2023-12-07T07:00:40.066Z,18.70
2023-12-07T07:03:08.390Z,19.80
2023-12-07T07:05:36.763Z,19.40
2023-12-07T07:08:03.800Z,16.20
2023-12-07T07:10:30.577Z,21.40
2023-12-07T07:13:01.454Z,20.60
2023-12-07T07:15:47.696Z,21.30
2023-12-07T07:18:15.743Z,29.50
2023-12-07T07:20:42.958Z,31.00
2023-12-07T07:23:09.798Z,29.70
2023-12-07T07:25:36.657Z,25.80
2023-12-07T07:28:05.093Z,28.30
2023-12-07T07:30:31.993Z,25.50
2023-12-07T07:32:58.764Z,20.40
2023-12-07T07:35:25.589Z,23.70
2023-12-07T07:37:52.308Z,24.40
2023-12-07T07:40:19.134Z,37.70
2023-12-07T07:42:46.794Z,36.80
2023-12-07T07:45:13.553Z,30.60
2023-12-07T07:47:40.397Z,32.00
2023-12-07T07:50:07.365Z,29.80
2023-12-07T07:52:35.331Z,26.40
2023-12-07T07:55:04.211Z,33.70
2023-12-07T07:57:32.071Z,30.20
2023-12-07T07:59:59.304Z,24.40
2023-12-07T08:02:26.066Z,24.60
2023-12-07T08:04:55.896Z,23.80
2023-12-07T08:07:22.899Z,20.60
2023-12-07T08:09:50.072Z,19.60
2023-12-07T08:12:16.827Z,21.50
2023-12-07T08:14:45.218Z,43.10
2023-12-07T08:17:12.716Z,37.10
2023-12-07T08:19:39.633Z,54.30
2023-12-07T08:22:06.630Z,35.60
2023-12-07T08:24:33.374Z,39.10
2023-12-07T08:27:00.243Z,34.80
2023-12-07T08:29:27.110Z,36.70
2023-12-07T08:31:53.846Z,45.80
2023-12-07T08:34:24.059Z,35.80
2023-12-07T08:36:51.233Z,35.50
2023-12-07T08:39:17.922Z,42.10
2023-12-07T08:41:44.737Z,33.20
2023-12-07T08:44:11.457Z,38.50
2023-12-07T08:46:38.305Z,30.30
2023-12-07T08:49:05.599Z,30.00
2023-12-07T08:51:32.557Z,29.10
2023-12-07T08:53:59.283Z,29.90
2023-12-07T08:56:27.046Z,25.30
2023-12-07T08:58:53.799Z,23.10
2023-12-07T09:01:26.394Z,27.30
2023-12-07T09:03:59.600Z,23.80
2023-12-07T09:06:26.679Z,23.30
2023-12-07T09:08:53.963Z,20.70
2023-12-07T09:11:21.397Z,25.40
2023-12-07T09:13:48.327Z,26.80
2023-12-07T09:16:16.007Z,44.90
2023-12-07T09:18:44.063Z,33.70
2023-12-07T09:21:12.472Z,28.00
2023-12-07T09:23:41.423Z,36.70
2023-12-07T09:26:09.202Z,28.80
2023-12-07T09:28:36.054Z,32.90
2023-12-07T09:31:03.257Z,33.80
2023-12-07T09:33:30.174Z,36.70
2023-12-07T09:35:56.953Z,64.20
2023-12-07T09:38:23.760Z,47.00
2023-12-07T09:40:53.679Z,43.50
2023-12-07T09:43:20.632Z,38.30
2023-12-07T09:45:48.858Z,38.90
2023-12-07T09:48:16.687Z,34.50
2023-12-07T09:50:43.528Z,41.50
2023-12-07T09:53:10.500Z,41.20
2023-12-07T09:55:38.712Z,37.60
2023-12-07T09:58:08.318Z,29.30
2023-12-07T10:00:36.558Z,36.30
2023-12-07T10:03:03.676Z,38.60
2023-12-07T10:05:30.817Z,35.30
2023-12-07T10:07:59.485Z,46.00
2023-12-07T10:10:27.491Z,44.90
2023-12-07T10:12:55.303Z,45.40
2023-12-07T10:15:23.752Z,79.60
2023-12-07T10:17:52.137Z,50.90
2023-12-07T10:20:26.594Z,40.70
2023-12-07T10:23:08.620Z,78.20
2023-12-07T10:25:44.567Z,77.60
2023-12-07T10:28:13.644Z,54.60
2023-12-07T10:30:45.522Z,43.90
2023-12-07T10:33:14.822Z,43.00
2023-12-07T10:35:42.721Z,39.30
2023-12-07T10:38:10.634Z,44.40
2023-12-07T10:40:38.161Z,34.30
2023-12-07T10:43:06.360Z,33.30
2023-12-07T10:45:33.816Z,33.10
2023-12-07T10:48:06.446Z,36.60
2023-12-07T10:50:36.035Z,36.20
2023-12-07T10:53:18.761Z,39.80
2023-12-07T10:55:57.957Z,36.40
2023-12-07T10:58:34.403Z,33.80
2023-12-07T11:01:16.848Z,34.90
2023-12-07T11:03:46.546Z,31.40
2023-12-07T11:06:29.389Z,32.20
2023-12-07T11:09:17.020Z,35.10
2023-12-07T11:12:01.034Z,32.70
2023-12-07T11:14:41.687Z,26.30
2023-12-07T11:17:09.774Z,30.70
2023-12-07T11:19:37.759Z,26.80
2023-12-07T11:22:05.830Z,29.10
2023-12-07T11:24:32.593Z,27.90
2023-12-07T11:26:59.901Z,27.30
2023-12-07T11:29:29.790Z,28.20
2023-12-07T11:31:57.833Z,23.40
2023-12-07T11:34:37.287Z,22.60
2023-12-07T11:37:04.372Z,31.10
2023-12-07T11:39:35.594Z,29.00
2023-12-07T11:42:11.464Z,25.40
2023-12-07T11:44:38.951Z,26.10
2023-12-07T11:47:06.626Z,28.00
2023-12-07T11:49:36.531Z,30.50
2023-12-07T11:52:14.247Z,25.00
2023-12-07T11:54:41.563Z,23.80
2023-12-07T11:57:08.874Z,29.30
2023-12-07T11:59:35.614Z,28.90
2023-12-07T12:02:04.131Z,27.60
2023-12-07T12:04:31.511Z,24.30
2023-12-07T12:06:58.711Z,34.80
2023-12-07T12:09:32.257Z,25.20
2023-12-07T12:12:01.850Z,26.60
2023-12-07T12:14:31.709Z,27.40
2023-12-07T12:16:59.011Z,24.40
2023-12-07T12:19:32.431Z,19.20
2023-12-07T12:22:06.075Z,23.80
2023-12-07T12:24:35.293Z,22.10
2023-12-07T12:27:02.417Z,23.50
2023-12-07T12:29:34.116Z,21.40
2023-12-07T12:32:07.315Z,23.50
2023-12-07T12:34:35.664Z,19.90
2023-12-07T12:37:03.625Z,12.60
2023-12-07T12:39:34.813Z,8.90
2023-12-07T12:42:04.537Z,13.50
2023-12-07T12:44:36.882Z,10.60
2023-12-07T12:47:12.796Z,10.80
2023-12-07T12:49:46.033Z,11.30
2023-12-07T12:52:17.879Z,11.00
2023-12-07T12:54:45.237Z,7.70
2023-12-07T12:57:12.049Z,10.00
2023-12-07T12:59:38.915Z,9.40
2023-12-07T13:02:06.000Z,8.70
2023-12-07T13:04:40.944Z,8.10
2023-12-07T13:07:09.261Z,11.90
2023-12-07T13:09:36.118Z,12.70
2023-12-07T13:12:05.556Z,7.50
2023-12-07T13:14:37.544Z,7.60
2023-12-07T13:17:05.651Z,7.70
2023-12-07T13:19:33.666Z,17.80
2023-12-07T13:22:04.536Z,8.00
2023-12-07T13:24:31.498Z,10.30
2023-12-07T13:26:58.277Z,10.70
2023-12-07T13:29:32.774Z,6.90
2023-12-07T13:32:03.794Z,11.10
2023-12-07T13:34:30.754Z,7.60
2023-12-07T13:36:57.816Z,8.40
2023-12-07T13:39:30.323Z,8.70
2023-12-07T13:41:59.739Z,9.10
2023-12-07T13:44:29.219Z,6.60
2023-12-07T13:46:58.478Z,7.20
2023-12-07T13:49:32.659Z,7.90
2023-12-07T13:52:07.165Z,6.80
2023-12-07T13:54:50.659Z,8.30
2023-12-07T13:57:21.989Z,8.90
2023-12-07T13:59:49.050Z,7.30
2023-12-07T14:02:16.706Z,8.80
2023-12-07T14:04:44.136Z,9.90
2023-12-07T14:07:15.652Z,7.70
2023-12-07T14:09:53.221Z,8.00
2023-12-07T14:12:25.232Z,7.70
2023-12-07T14:14:52.311Z,8.80
2023-12-07T14:17:20.485Z,7.70
2023-12-07T14:19:50.222Z,7.80
2023-12-07T14:22:17.729Z,9.30
2023-12-07T14:24:44.613Z,7.10
2023-12-07T14:27:11.446Z,7.50
2023-12-07T14:29:38.491Z,10.00
2023-12-07T14:32:05.509Z,10.40
2023-12-07T14:34:35.233Z,9.90
2023-12-07T14:37:08.021Z,15.80
2023-12-07T14:39:36.148Z,24.30
2023-12-07T14:42:04.009Z,12.90
2023-12-07T14:44:30.909Z,10.10
2023-12-07T14:46:58.268Z,8.70
2023-12-07T14:49:25.253Z,11.30
2023-12-07T14:51:52.540Z,15.00
2023-12-07T14:54:23.155Z,8.50
2023-12-07T14:56:54.176Z,9.30
2023-12-07T14:59:23.883Z,10.70
2023-12-07T15:01:51.981Z,16.60
2023-12-07T15:04:28.220Z,11.10
2023-12-07T15:07:00.898Z,11.70
2023-12-07T15:09:27.864Z,14.20
2023-12-07T15:11:56.100Z,11.70
2023-12-07T15:14:33.511Z,12.70
2023-12-07T15:17:06.059Z,12.90
2023-12-07T15:19:35.602Z,17.90
2023-12-07T15:22:02.740Z,13.50
2023-12-07T15:24:35.145Z,13.30
2023-12-07T15:27:04.725Z,13.70
2023-12-07T15:29:31.897Z,17.60
2023-12-07T15:31:58.775Z,15.50
2023-12-07T15:34:33.635Z,17.60
2023-12-07T15:37:05.784Z,17.40
2023-12-07T15:39:33.232Z,16.60
2023-12-07T15:42:00.559Z,13.80
2023-12-07T15:44:30.140Z,15.50
2023-12-07T15:46:58.483Z,17.30
2023-12-07T15:49:26.177Z,14.60
2023-12-07T15:51:56.083Z,16.30
2023-12-07T15:54:33.980Z,15.70
2023-12-07T15:57:05.575Z,20.50
2023-12-07T15:59:32.739Z,19.60
2023-12-07T16:01:59.814Z,18.30
2023-12-07T16:04:32.311Z,18.60
2023-12-07T16:07:10.089Z,18.30
2023-12-07T16:09:38.849Z,17.30
2023-12-07T16:12:07.015Z,17.90
2023-12-07T16:14:35.169Z,20.00
2023-12-07T16:17:03.186Z,26.90
2023-12-07T16:19:31.104Z,27.90
2023-12-07T16:21:58.246Z,24.20
2023-12-07T16:24:24.927Z,18.70
2023-12-07T16:26:53.585Z,17.20
2023-12-07T16:29:23.415Z,20.00
2023-12-07T16:31:51.117Z,14.60
2023-12-07T16:34:18.315Z,15.70
2023-12-07T16:36:46.233Z,12.60
2023-12-07T16:39:14.074Z,16.40
2023-12-07T16:41:45.334Z,12.30
2023-12-07T16:44:18.736Z,16.20
2023-12-07T16:46:45.914Z,14.10
2023-12-07T16:49:16.377Z,14.10
2023-12-07T16:51:43.308Z,15.60
2023-12-07T16:54:10.191Z,16.40
2023-12-07T16:56:37.267Z,20.50
2023-12-07T16:59:04.181Z,19.40
2023-12-07T17:01:30.935Z,16.00
2023-12-07T17:03:57.864Z,13.60
2023-12-07T17:06:25.696Z,17.10
2023-12-07T17:09:07.006Z,14.40
2023-12-07T17:11:38.587Z,13.80
2023-12-07T17:14:05.459Z,14.00
2023-12-07T17:16:32.275Z,17.80
2023-12-07T17:19:00.057Z,21.70
2023-12-07T17:21:29.567Z,19.60
2023-12-07T17:23:57.243Z,17.10
2023-12-07T17:26:24.057Z,18.30
2023-12-07T17:28:57.717Z,25.60
2023-12-07T17:31:31.147Z,31.70
2023-12-07T17:34:02.264Z,35.20
2023-12-07T17:36:34.361Z,41.20
2023-12-07T17:39:13.937Z,39.60
2023-12-07T17:41:49.121Z,36.20
2023-12-07T17:44:22.721Z,27.80
2023-12-07T17:46:58.428Z,29.40
2023-12-07T17:49:32.758Z,28.10
2023-12-07T17:52:08.054Z,26.40
2023-12-07T17:54:43.816Z,24.70
2023-12-07T17:57:15.198Z,21.50
2023-12-07T18:00:03.474Z,27.00
2023-12-07T18:02:36.821Z,29.40
2023-12-07T18:05:14.911Z,24.60
2023-12-07T18:07:52.585Z,24.00
2023-12-07T18:10:27.665Z,23.10
2023-12-07T18:12:58.318Z,26.10
2023-12-07T18:15:30.409Z,24.20
2023-12-07T18:18:02.795Z,19.70
2023-12-07T18:20:40.834Z,21.60
2023-12-07T18:23:10.054Z,21.80
2023-12-07T18:25:51.565Z,23.00
2023-12-07T18:28:22.136Z,16.80
2023-12-07T18:30:55.016Z,18.20
2023-12-07T18:33:29.250Z,17.60
2023-12-07T18:36:03.384Z,17.80
2023-12-07T18:38:38.357Z,12.60
2023-12-07T18:41:12.259Z,14.90
2023-12-07T18:43:46.157Z,16.90
2023-12-07T18:46:20.111Z,14.10
2023-12-07T18:48:53.896Z,13.40
2023-12-07T18:51:28.358Z,14.30
2023-12-07T18:54:02.063Z,14.50
2023-12-07T18:56:36.919Z,9.60
2023-12-07T18:59:10.891Z,15.10
2023-12-07T19:01:44.566Z,14.40
2023-12-07T19:04:20.838Z,9.80
2023-12-07T19:06:55.257Z,9.70
2023-12-07T19:09:29.565Z,10.60
2023-12-07T19:12:02.728Z,12.00
2023-12-07T19:14:37.278Z,12.80
2023-12-07T19:17:11.320Z,11.30
2023-12-07T19:19:45.196Z,17.70
2023-12-07T19:22:19.900Z,17.10
2023-12-07T19:24:53.875Z,16.60
2023-12-07T19:27:26.976Z,14.80
2023-12-07T19:30:02.257Z,18.10
2023-12-07T19:32:35.503Z,20.90
2023-12-07T19:35:14.785Z,25.80
2023-12-07T19:37:48.317Z,34.00
2023-12-07T19:40:21.790Z,31.10
2023-12-07T19:42:56.481Z,34.40
2023-12-07T19:45:29.710Z,41.10
2023-12-07T19:48:03.838Z,38.20
2023-12-07T19:50:38.020Z,39.40
2023-12-07T19:53:05.895Z,35.10
2023-12-07T19:55:42.731Z,37.60
2023-12-07T19:58:16.672Z,36.90
2023-12-07T20:00:50.203Z,38.90
2023-12-07T20:03:24.279Z,37.60
2023-12-07T20:05:51.523Z,35.40
2023-12-07T20:08:24.692Z,39.20
2023-12-07T20:10:52.474Z,36.50
2023-12-07T20:13:29.293Z,38.00
2023-12-07T20:16:05.604Z,34.10
2023-12-07T20:18:36.026Z,33.10
2023-12-07T20:21:10.032Z,30.10
2023-12-07T20:23:46.849Z,31.30
2023-12-07T20:26:23.588Z,35.60
2023-12-07T20:28:58.666Z,35.90
2023-12-07T20:31:32.358Z,32.30
2023-12-07T20:34:00.108Z,32.10
2023-12-07T20:36:34.069Z,31.60
2023-12-07T20:39:09.599Z,30.60
2023-12-07T20:41:43.296Z,22.60
2023-12-07T20:44:11.959Z,28.20
2023-12-07T20:46:49.010Z,21.40
2023-12-07T20:49:19.500Z,26.50
2023-12-07T20:51:48.790Z,22.40
2023-12-07T20:54:18.328Z,25.50
2023-12-07T20:56:47.444Z,32.70
2023-12-07T20:59:16.854Z,33.30
2023-12-07T21:01:45.435Z,31.70
2023-12-07T21:04:14.966Z,33.00
2023-12-07T21:06:42.720Z,32.80
2023-12-07T21:09:14.980Z,29.20
2023-12-07T21:11:46.154Z,26.60
2023-12-07T21:14:20.016Z,27.20
2023-12-07T21:16:53.890Z,25.70
2023-12-07T21:19:26.230Z,35.30
2023-12-07T21:21:53.945Z,22.70
2023-12-07T21:24:25.992Z,21.30
2023-12-07T21:26:57.661Z,20.20
2023-12-07T21:29:31.159Z,24.20
2023-12-07T21:32:03.305Z,24.90
2023-12-07T21:34:42.148Z,20.30
2023-12-07T21:37:14.935Z,17.20
2023-12-07T21:39:48.682Z,20.20
2023-12-07T21:42:21.698Z,23.10
2023-12-07T21:44:50.037Z,19.00
2023-12-07T21:47:24.600Z,21.80
2023-12-07T21:49:56.604Z,23.60
2023-12-07T21:52:29.261Z,25.30
2023-12-07T21:55:03.216Z,28.00
2023-12-07T21:57:37.821Z,29.30
2023-12-07T22:00:12.052Z,24.70
2023-12-07T22:02:45.698Z,22.10
2023-12-07T22:05:15.789Z,19.00
2023-12-07T22:07:46.380Z,19.40
2023-12-07T22:10:26.547Z,17.80
2023-12-07T22:12:58.616Z,16.80
2023-12-07T22:15:28.367Z,17.50
2023-12-07T22:17:58.457Z,14.60
2023-12-07T22:20:30.750Z,15.30
2023-12-07T22:22:59.681Z,14.80
2023-12-07T22:25:33.023Z,16.80
2023-12-07T22:28:05.794Z,15.40
2023-12-07T22:30:40.001Z,18.30
2023-12-07T22:33:08.758Z,16.00
2023-12-07T22:35:39.112Z,20.60
2023-12-07T22:38:09.960Z,16.30
2023-12-07T22:40:43.172Z,15.00
2023-12-07T22:43:14.132Z,14.20
2023-12-07T22:45:44.771Z,15.40
2023-12-07T22:48:14.816Z,17.00
2023-12-07T22:50:47.223Z,14.20
2023-12-07T22:53:19.874Z,18.90
2023-12-07T22:55:53.094Z,16.40
2023-12-07T22:58:24.238Z,13.80
2023-12-07T23:00:53.488Z,16.70
2023-12-07T23:03:25.151Z,17.70
2023-12-07T23:05:52.821Z,13.30
2023-12-07T23:08:20.091Z,16.00
2023-12-07T23:10:46.881Z,20.20
2023-12-07T23:13:13.618Z,16.90
2023-12-07T23:15:40.347Z,19.20
2023-12-07T23:18:07.193Z,28.80
2023-12-07T23:20:34.238Z,37.00
2023-12-07T23:23:01.064Z,31.00
2023-12-07T23:25:27.812Z,36.60
2023-12-07T23:27:55.874Z,40.40
2023-12-07T23:30:23.977Z,39.10
2023-12-07T23:32:51.501Z,51.30
2023-12-07T23:35:19.061Z,54.70
2023-12-07T23:37:45.792Z,53.50
2023-12-07T23:40:12.837Z,50.60
2023-12-07T23:42:40.003Z,52.10
2023-12-07T23:45:07.171Z,44.30
2023-12-07T23:47:34.209Z,75.10
2023-12-07T23:50:01.382Z,45.90
2023-12-07T23:52:28.101Z,47.70
2023-12-07T23:54:54.878Z,43.40
2023-12-07T23:57:21.621Z,42.80
2023-12-07T23:59:48.350Z,39.30
